createdAt,value
2017-11-15T00:00:55.885Z,98678.36
2017-11-15T00:01:58.363Z,98680.27
2017-11-15T00:03:00.959Z,98675.70
2017-11-15T00:04:03.741Z,98674.92
2017-11-15T00:05:06.282Z,98671.83
2017-11-15T00:06:09.036Z,98671.83
2017-11-15T00:07:11.549Z,98669.44
2017-11-15T00:08:13.963Z,98673.33
2017-11-15T00:09:16.470Z,98665.78
2017-11-15T00:10:18.943Z,98666.48
2017-11-15T00:11:21.454Z,98668.47
2017-11-15T00:12:24.317Z,98676.18
2017-11-15T00:13:26.887Z,98672.23
2017-11-15T00:14:29.438Z,98672.13
2017-11-15T00:15:31.974Z,98674.22
2017-11-15T00:16:34.513Z,98677.98
2017-11-15T00:17:37.097Z,98682.22
2017-11-15T00:18:39.931Z,98684.10
2017-11-15T00:19:42.515Z,98676.45
2017-11-15T00:20:45.036Z,98684.41
2017-11-15T00:21:47.613Z,98684.03
2017-11-15T00:22:50.145Z,98685.31
2017-11-15T00:23:52.814Z,98676.80
2017-11-15T00:24:55.635Z,98680.96
2017-11-15T00:25:59.176Z,98685.53
2017-11-15T00:27:01.706Z,98678.38
2017-11-15T00:28:04.259Z,98685.69
2017-11-15T00:29:06.853Z,98687.30
2017-11-15T00:30:09.386Z,98685.31
2017-11-15T00:31:11.923Z,98682.92
2017-11-15T00:32:14.476Z,98689.67
2017-11-15T00:33:17.142Z,98685.91
2017-11-15T00:34:19.717Z,98688.19
2017-11-15T00:35:22.321Z,98690.47
2017-11-15T00:36:25.174Z,98686.02
2017-11-15T00:37:27.778Z,98691.87
2017-11-15T00:38:30.408Z,98692.17
2017-11-15T00:39:32.942Z,98692.06
2017-11-15T00:40:35.507Z,98692.86
2017-11-15T00:41:38.043Z,98700.20
2017-11-15T00:42:40.608Z,98693.27
2017-11-15T00:43:43.113Z,98695.45
2017-11-15T00:44:45.651Z,98693.16
2017-11-15T00:45:48.299Z,98692.56
2017-11-15T00:46:50.875Z,98699.34
2017-11-15T00:47:53.815Z,98695.28
2017-11-15T00:48:56.350Z,98693.00
2017-11-15T00:49:58.934Z,98690.61
2017-11-15T00:51:01.496Z,98689.21
2017-11-15T00:52:04.048Z,98689.59
2017-11-15T00:53:06.577Z,98688.52
2017-11-15T00:54:09.736Z,98685.53
2017-11-15T00:55:12.341Z,98682.55
2017-11-15T00:56:14.915Z,98682.92
2017-11-15T00:57:17.479Z,98679.97
2017-11-15T00:58:20.566Z,98676.80
2017-11-15T00:59:23.126Z,98678.38
2017-11-15T01:00:25.935Z,98680.77
2017-11-15T01:01:28.489Z,98679.00
2017-11-15T01:02:31.066Z,98667.71
2017-11-15T01:03:33.687Z,98669.70
2017-11-15T01:04:36.249Z,98666.13
2017-11-15T01:05:38.784Z,98678.30
2017-11-15T01:06:41.619Z,98676.50
2017-11-15T01:07:44.201Z,98671.53
2017-11-15T01:08:46.722Z,98676.20
2017-11-15T01:09:49.244Z,98677.20
2017-11-15T01:10:51.718Z,98677.12
2017-11-15T01:11:54.185Z,98670.86
2017-11-15T01:12:56.951Z,98670.88
2017-11-15T01:13:59.528Z,98676.54
2017-11-15T01:15:02.010Z,98669.50
2017-11-15T01:16:04.557Z,98672.67
2017-11-15T01:17:07.107Z,98676.24
2017-11-15T01:18:09.669Z,98672.66
2017-11-15T01:19:12.552Z,98675.65
2017-11-15T01:20:15.082Z,98675.16
2017-11-15T01:21:17.648Z,98678.45
2017-11-15T01:22:20.173Z,98684.81
2017-11-15T01:23:22.748Z,98686.37
2017-11-15T01:24:25.348Z,98679.03
2017-11-15T01:25:28.178Z,98685.46
2017-11-15T01:26:30.702Z,98685.77
2017-11-15T01:27:33.253Z,98682.19
2017-11-15T01:28:35.809Z,98688.83
2017-11-15T01:29:38.357Z,98687.75
2017-11-15T01:30:40.899Z,98694.61
2017-11-15T01:31:43.461Z,98685.58
2017-11-15T01:32:45.986Z,98695.50
2017-11-15T01:33:48.495Z,98687.95
2017-11-15T01:34:51.071Z,98694.20
2017-11-15T01:35:53.608Z,98686.17
2017-11-15T01:36:56.154Z,98687.27
2017-11-15T01:37:59.010Z,98692.42
2017-11-15T01:39:01.546Z,98688.28
2017-11-15T01:40:04.752Z,98687.58
2017-11-15T01:41:07.289Z,98687.59
2017-11-15T01:42:11.194Z,98684.51
2017-11-15T01:43:13.740Z,98684.80
2017-11-15T01:44:16.675Z,98679.24
2017-11-15T01:45:19.212Z,98682.22
2017-11-15T01:46:21.842Z,98678.88
2017-11-15T01:47:24.452Z,98684.44
2017-11-15T01:48:27.069Z,98686.41
2017-11-15T01:49:29.646Z,98688.21
2017-11-15T01:50:32.514Z,98687.41
2017-11-15T01:51:35.061Z,98683.05
2017-11-15T01:52:37.592Z,98681.06
2017-11-15T01:53:40.172Z,98681.55
2017-11-15T01:54:42.706Z,98677.88
2017-11-15T01:55:45.261Z,98675.89
2017-11-15T01:56:48.167Z,98682.23
2017-11-15T01:57:50.702Z,98677.58
2017-11-15T01:58:53.370Z,98680.45
2017-11-15T01:59:56.061Z,98679.66
2017-11-15T02:00:58.619Z,98674.20
2017-11-15T02:02:01.143Z,98674.50
2017-11-15T02:03:03.998Z,98674.31
2017-11-15T02:04:06.520Z,98676.98
2017-11-15T02:05:09.025Z,98675.39
2017-11-15T02:06:11.611Z,98673.47
2017-11-15T02:07:14.173Z,98674.06
2017-11-15T02:08:16.754Z,98672.19
2017-11-15T02:09:19.623Z,98672.30
2017-11-15T02:10:22.246Z,98670.70
2017-11-15T02:11:24.812Z,98669.91
2017-11-15T02:12:27.341Z,98674.80
2017-11-15T02:13:29.895Z,98672.02
2017-11-15T02:14:32.442Z,98677.17
2017-11-15T02:15:35.378Z,98668.54
2017-11-15T02:16:37.881Z,98670.52
2017-11-15T02:17:40.332Z,98666.77
2017-11-15T02:18:42.919Z,98672.59
2017-11-15T02:19:45.501Z,98668.36
2017-11-15T02:20:48.086Z,98663.59
2017-11-15T02:21:51.007Z,98666.06
2017-11-15T02:22:53.518Z,98667.54
2017-11-15T02:23:56.046Z,98672.11
2017-11-15T02:24:58.619Z,98669.25
2017-11-15T02:26:01.128Z,98665.16
2017-11-15T02:27:03.647Z,98672.13
2017-11-15T02:28:06.421Z,98670.92
2017-11-15T02:29:08.920Z,98676.69
2017-11-15T02:30:11.464Z,98676.48
2017-11-15T02:31:13.959Z,98672.89
2017-11-15T02:32:16.547Z,98671.11
2017-11-15T02:33:19.340Z,98667.52
2017-11-15T02:34:22.296Z,98670.31
2017-11-15T02:35:24.971Z,98670.98
2017-11-15T02:36:27.856Z,98664.33
2017-11-15T02:37:30.461Z,98665.30
2017-11-15T02:38:32.974Z,98668.57
2017-11-15T02:39:35.695Z,98665.31
2017-11-15T02:40:38.912Z,98667.70
2017-11-15T02:41:41.477Z,98664.82
2017-11-15T02:42:44.042Z,98660.95
2017-11-15T02:43:46.609Z,98669.13
2017-11-15T02:44:49.159Z,98662.45
2017-11-15T02:45:51.716Z,98655.81
2017-11-15T02:46:54.584Z,98659.58
2017-11-15T02:47:57.131Z,98664.33
2017-11-15T02:48:59.691Z,98657.78
2017-11-15T02:50:02.255Z,98660.88
2017-11-15T02:51:04.791Z,98657.78
2017-11-15T02:52:07.288Z,98656.69
2017-11-15T02:53:10.151Z,98649.34
2017-11-15T02:54:12.656Z,98654.83
2017-11-15T02:55:15.156Z,98651.84
2017-11-15T02:56:17.728Z,98645.68
2017-11-15T02:59:48.641Z,98643.09
2017-11-15T03:00:51.415Z,98647.88
2017-11-15T03:01:54.310Z,98645.09
2017-11-15T03:02:56.871Z,98645.28
2017-11-15T03:03:59.443Z,98646.08
2017-11-15T03:05:02.282Z,98650.08
2017-11-15T03:06:04.856Z,98645.98
2017-11-15T03:07:07.420Z,98643.91
2017-11-15T03:08:09.971Z,98645.13
2017-11-15T03:09:12.528Z,98646.19
2017-11-15T03:10:15.095Z,98637.54
2017-11-15T03:11:17.998Z,98637.66
2017-11-15T03:12:20.753Z,98639.63
2017-11-15T03:13:23.276Z,98636.85
2017-11-15T03:14:27.211Z,98639.64
2017-11-15T03:15:29.855Z,98636.56
2017-11-15T03:16:32.513Z,98638.83
2017-11-15T03:17:35.548Z,98640.62
2017-11-15T03:18:38.103Z,98638.36
2017-11-15T03:19:40.673Z,98639.76
2017-11-15T03:20:43.256Z,98636.87
2017-11-15T03:21:45.828Z,98638.44
2017-11-15T03:22:48.401Z,98636.06
2017-11-15T03:23:51.370Z,98633.97
2017-11-15T03:24:54.040Z,98628.72
2017-11-15T03:25:56.578Z,98631.81
2017-11-15T03:26:59.135Z,98631.00
2017-11-15T03:28:01.684Z,98639.95
2017-11-15T03:29:04.270Z,98631.80
2017-11-15T03:30:07.112Z,98633.40
2017-11-15T03:31:09.715Z,98641.05
2017-11-15T03:32:12.263Z,98638.57
2017-11-15T03:33:14.827Z,98637.56
2017-11-15T03:34:17.405Z,98642.74
2017-11-15T03:35:20.025Z,98640.75
2017-11-15T03:36:22.914Z,98639.86
2017-11-15T03:37:25.513Z,98640.55
2017-11-15T03:38:28.071Z,98641.16
2017-11-15T03:39:30.616Z,98644.53
2017-11-15T03:40:33.276Z,98645.52
2017-11-15T03:41:35.844Z,98646.52
2017-11-15T03:42:38.799Z,98647.00
2017-11-15T03:43:41.391Z,98644.53
2017-11-15T03:44:43.984Z,98644.31
2017-11-15T03:45:46.575Z,98648.20
2017-11-15T03:46:49.166Z,98646.50
2017-11-15T03:47:51.747Z,98646.01
2017-11-15T03:48:54.629Z,98648.09
2017-11-15T03:49:57.243Z,98650.66
2017-11-15T03:50:59.843Z,98653.66
2017-11-15T03:52:02.425Z,98651.97
2017-11-15T03:53:04.999Z,98652.97
2017-11-15T03:54:07.595Z,98654.94
2017-11-15T03:55:10.429Z,98656.44
2017-11-15T03:56:12.995Z,98652.66
2017-11-15T03:57:15.471Z,98653.27
2017-11-15T03:58:17.948Z,98650.86
2017-11-15T03:59:20.537Z,98651.36
2017-11-15T04:00:23.758Z,98647.41
2017-11-15T04:01:26.329Z,98652.66
2017-11-15T04:02:28.933Z,98657.23
2017-11-15T04:03:31.518Z,98653.06
2017-11-15T04:04:34.012Z,98654.26
2017-11-15T04:05:36.529Z,98651.66
2017-11-15T04:06:39.328Z,98659.40
2017-11-15T04:07:41.804Z,98652.34
2017-11-15T04:08:44.408Z,98657.63
2017-11-15T04:09:46.954Z,98649.28
2017-11-15T04:10:49.573Z,98657.83
2017-11-15T04:11:52.148Z,98650.46
2017-11-15T04:12:55.000Z,98657.24
2017-11-15T04:13:57.602Z,98658.23
2017-11-15T04:15:00.165Z,98653.84
2017-11-15T04:16:02.747Z,98654.64
2017-11-15T04:17:05.420Z,98655.83
2017-11-15T04:18:07.919Z,98651.95
2017-11-15T04:19:10.685Z,98653.86
2017-11-15T04:20:13.124Z,98655.33
2017-11-15T04:21:15.533Z,98655.25
2017-11-15T04:22:17.959Z,98654.03
2017-11-15T04:23:20.444Z,98656.25
2017-11-15T04:24:22.986Z,98652.75
2017-11-15T04:25:25.999Z,98654.45
2017-11-15T04:26:28.647Z,98650.46
2017-11-15T04:27:31.221Z,98647.09
2017-11-15T04:28:33.796Z,98649.88
2017-11-15T04:29:36.441Z,98651.47
2017-11-15T04:30:39.000Z,98649.98
2017-11-15T04:31:41.590Z,98651.25
2017-11-15T04:32:44.145Z,98649.38
2017-11-15T04:33:46.752Z,98645.33
2017-11-15T04:34:49.483Z,98646.89
2017-11-15T04:35:52.059Z,98648.30
2017-11-15T04:36:55.002Z,98652.06
2017-11-15T04:37:57.635Z,98652.54
2017-11-15T04:39:00.243Z,98653.44
2017-11-15T04:40:02.850Z,98652.17
2017-11-15T04:41:05.443Z,98651.06
2017-11-15T04:42:08.050Z,98649.69
2017-11-15T04:43:10.640Z,98650.67
2017-11-15T04:44:13.369Z,98652.66
2017-11-15T04:45:16.099Z,98651.06
2017-11-15T04:46:18.648Z,98643.05
2017-11-15T04:47:21.359Z,98652.27
2017-11-15T04:48:23.955Z,98651.28
2017-11-15T04:49:26.646Z,98653.45
2017-11-15T04:50:29.240Z,98650.38
2017-11-15T04:51:31.813Z,98652.97
2017-11-15T04:52:34.446Z,98654.36
2017-11-15T04:53:37.029Z,118297.86
2017-11-15T04:54:39.698Z,118297.86
2017-11-15T04:55:42.276Z,118297.86
2017-11-15T04:56:44.842Z,118297.86
2017-11-15T04:57:47.427Z,118297.86
2017-11-15T04:58:50.307Z,118297.86
2017-11-15T04:59:52.973Z,118297.86
2017-11-15T05:00:55.619Z,118297.86
2017-11-15T05:01:58.208Z,118297.86
2017-11-15T05:03:00.791Z,118297.86
2017-11-15T05:04:03.437Z,118297.86
2017-11-15T05:05:06.384Z,118297.86
2017-11-15T05:06:09.007Z,118297.86
2017-11-15T05:07:11.627Z,118297.86
2017-11-15T05:08:14.253Z,118297.86
2017-11-15T05:09:16.880Z,118297.86
2017-11-15T05:10:19.486Z,118297.86
2017-11-15T05:11:22.408Z,118297.86
2017-11-15T05:12:25.018Z,118297.86
2017-11-15T05:13:27.648Z,118297.86
2017-11-15T05:14:30.249Z,118297.86
2017-11-15T05:15:32.857Z,118297.86
2017-11-15T05:16:35.500Z,118297.86
2017-11-15T05:17:38.438Z,118297.86
2017-11-15T05:18:41.026Z,118297.86
2017-11-15T05:19:43.674Z,118297.86
2017-11-15T05:20:46.281Z,118297.86
2017-11-15T05:21:48.892Z,118297.86
2017-11-15T05:22:51.486Z,118297.86
2017-11-15T05:23:54.524Z,118297.86
2017-11-15T05:24:57.119Z,118297.86
2017-11-15T05:25:59.723Z,118297.86
2017-11-15T05:27:02.334Z,118297.86
2017-11-15T05:28:04.974Z,118297.86
2017-11-15T05:29:07.623Z,118297.86
2017-11-15T05:30:10.543Z,118297.86
2017-11-15T05:31:13.123Z,118297.86
2017-11-15T05:32:15.727Z,118297.86
2017-11-15T05:33:18.332Z,118297.86
2017-11-15T05:34:20.930Z,118297.86
2017-11-15T05:35:23.581Z,118297.86
2017-11-15T05:36:26.463Z,118297.86
2017-11-15T05:37:29.085Z,118297.86
2017-11-15T05:38:31.695Z,118297.86
2017-11-15T05:39:34.407Z,118297.86
2017-11-15T05:40:36.992Z,118297.86
2017-11-15T05:41:39.628Z,118297.86
2017-11-15T05:42:42.481Z,118297.86
2017-11-15T05:43:45.068Z,118297.86
2017-11-15T05:44:47.556Z,118297.86
2017-11-15T05:45:50.078Z,118297.86
2017-11-15T05:46:52.522Z,118297.86
2017-11-15T05:47:55.021Z,118297.86
2017-11-15T05:48:57.999Z,118297.86
2017-11-15T05:50:00.617Z,118297.86
2017-11-15T05:51:03.213Z,118297.86
2017-11-15T05:52:05.879Z,118297.86
2017-11-15T05:53:08.481Z,118297.86
2017-11-15T05:54:11.091Z,118297.86
2017-11-15T05:55:14.020Z,118297.86
2017-11-15T05:56:16.651Z,118297.86
2017-11-15T05:57:19.282Z,118297.86
2017-11-15T05:58:21.850Z,118297.86
2017-11-15T10:11:23.726Z,118297.86
2017-11-15T10:12:26.692Z,118297.86
2017-11-15T10:13:29.897Z,118297.86
2017-11-15T10:14:32.609Z,118297.86
2017-11-15T10:15:35.831Z,118297.86
2017-11-15T10:16:41.513Z,118297.86
2017-11-15T10:17:44.262Z,118297.86
2017-11-15T10:18:46.940Z,118297.86
2017-11-15T10:19:49.655Z,118297.86
2017-11-15T10:20:52.326Z,118297.86
2017-11-15T10:21:54.984Z,118297.86
2017-11-15T10:22:57.751Z,118297.86
2017-11-15T10:24:00.531Z,118297.86
2017-11-15T10:25:03.500Z,118297.86
2017-11-15T10:26:06.198Z,118297.86
2017-11-15T10:27:08.839Z,118297.86
2017-11-15T10:28:13.306Z,118297.86
2017-11-15T10:29:16.068Z,118297.86
2017-11-15T10:30:18.769Z,118297.86
2017-11-15T10:31:21.914Z,152400.89
2017-11-15T10:32:24.747Z,118297.86
2017-11-15T10:33:27.404Z,98762.70
2017-11-15T10:34:30.101Z,118297.86
2017-11-15T10:35:32.817Z,118297.86
2017-11-15T10:36:35.501Z,118297.86
2017-11-15T10:37:38.669Z,118297.86
2017-11-15T10:38:41.392Z,118297.86
2017-11-15T10:39:44.081Z,118297.86
2017-11-15T10:40:47.146Z,118297.86
2017-11-15T10:41:49.881Z,118297.86
2017-11-15T10:42:52.670Z,118297.86
2017-11-15T10:43:55.648Z,118297.86
2017-11-15T10:44:58.323Z,118297.86
2017-11-15T10:46:01.031Z,98744.83
2017-11-15T10:47:03.761Z,118297.86
2017-11-15T10:48:09.295Z,118297.86
2017-11-15T10:49:12.050Z,118297.86
2017-11-15T10:50:15.135Z,118297.86
2017-11-15T10:51:17.892Z,152509.91
2017-11-15T10:52:20.665Z,118297.86
2017-11-15T10:53:23.400Z,98736.69
2017-11-15T10:54:26.235Z,98735.89
2017-11-15T10:55:29.810Z,98733.77
2017-11-15T10:56:32.887Z,98741.55
2017-11-15T10:57:35.578Z,98735.87
2017-11-15T10:58:38.324Z,98740.04
2017-11-15T10:59:41.086Z,98739.77
2017-11-15T11:00:43.974Z,98739.02
2017-11-15T11:01:46.805Z,98735.88
2017-11-15T11:02:49.537Z,98738.41
2017-11-15T11:03:52.194Z,118297.86
2017-11-15T11:04:54.892Z,118297.86
2017-11-15T11:05:57.693Z,118297.86
2017-11-15T11:07:00.276Z,98735.63
2017-11-15T11:08:03.027Z,98735.81
2017-11-15T11:09:05.728Z,98728.64
2017-11-15T11:10:08.418Z,118297.86
2017-11-15T11:11:11.555Z,118297.86
2017-11-15T11:12:14.194Z,98742.30
2017-11-15T11:13:16.879Z,118297.86
2017-11-15T11:14:19.600Z,98736.24
2017-11-15T11:15:22.313Z,98740.17
2017-11-15T11:16:25.002Z,118297.86
2017-11-15T11:17:29.500Z,98735.47
2017-11-15T11:18:32.255Z,98735.75
2017-11-15T11:19:35.336Z,118297.86
2017-11-15T11:20:38.063Z,98732.89
2017-11-15T11:21:40.732Z,98733.14
2017-11-15T11:22:43.474Z,98729.32
2017-11-15T11:23:46.227Z,118297.86
2017-11-15T11:24:48.935Z,98725.91
2017-11-15T11:25:51.999Z,98726.52
2017-11-15T11:26:54.674Z,98730.61
2017-11-15T11:27:57.366Z,98733.82
2017-11-15T11:29:00.051Z,98738.05
2017-11-15T11:30:02.757Z,98727.13
2017-11-15T11:31:05.593Z,98732.52
2017-11-15T11:32:08.558Z,98732.67
2017-11-15T11:33:11.776Z,98729.66
2017-11-15T11:34:14.539Z,118297.86
2017-11-15T11:35:24.397Z,98730.42
2017-11-15T11:36:27.242Z,98732.75
2017-11-15T11:37:30.147Z,98736.58
2017-11-15T11:38:35.796Z,118297.86
2017-11-15T11:39:38.484Z,98734.17
2017-11-15T11:40:41.230Z,98725.03
2017-11-15T11:41:43.907Z,98724.05
2017-11-15T11:43:48.914Z,118297.86
2017-11-15T11:44:51.920Z,118297.86
2017-11-15T11:45:54.623Z,118297.86
2017-11-15T11:46:57.273Z,98730.48
2017-11-15T11:47:59.900Z,118297.86
2017-11-15T11:49:02.544Z,118297.86
2017-11-15T11:50:05.176Z,98724.67
2017-11-15T11:51:07.887Z,98727.73
2017-11-15T11:52:10.539Z,98726.05
2017-11-15T11:53:13.215Z,98732.96
2017-11-15T11:54:15.896Z,98726.94
2017-11-15T11:55:18.778Z,98732.27
2017-11-15T11:56:21.949Z,118297.86
2017-11-15T11:57:24.670Z,118297.86
2017-11-15T11:58:27.338Z,98726.59
2017-11-15T11:59:30.493Z,98726.59
2017-11-15T12:00:34.007Z,98728.84
2017-11-15T12:01:36.730Z,98727.95
2017-11-15T12:02:39.795Z,118297.86
2017-11-15T12:03:42.478Z,98727.22
2017-11-15T12:04:45.079Z,98724.55
2017-11-15T12:05:47.944Z,118297.86
2017-11-15T12:06:50.683Z,98729.88
2017-11-15T12:07:53.335Z,98728.01
2017-11-15T12:08:56.441Z,118297.86
2017-11-15T12:09:59.208Z,118297.86
2017-11-15T12:11:01.887Z,118297.86
2017-11-15T12:12:05.441Z,118297.86
2017-11-15T12:13:08.458Z,118297.86
2017-11-15T12:14:11.124Z,118297.86
2017-11-15T12:15:14.267Z,118297.86
2017-11-15T12:16:16.994Z,98719.90
2017-11-15T12:17:19.757Z,118297.86
2017-11-15T12:18:22.533Z,118297.86
2017-11-15T12:19:25.285Z,118297.86
2017-11-15T12:20:28.266Z,118297.86
2017-11-15T12:21:31.048Z,98725.54
2017-11-15T12:22:33.796Z,118297.86
2017-11-15T12:23:36.607Z,118297.86
2017-11-15T12:24:39.311Z,118297.86
2017-11-15T12:25:42.034Z,118297.86
2017-11-15T12:26:45.159Z,118297.86
2017-11-15T12:27:47.850Z,118297.86
2017-11-15T12:28:50.549Z,118297.86
2017-11-15T12:29:53.287Z,118297.86
2017-11-15T12:30:55.983Z,118297.86
2017-11-15T12:31:58.746Z,118297.86
2017-11-15T12:33:01.510Z,118297.86
2017-11-15T12:34:04.309Z,118297.86
2017-11-15T12:35:07.074Z,118297.86
2017-11-15T12:36:09.939Z,118297.86
2017-11-15T12:37:12.667Z,118297.86
2017-11-15T12:38:15.511Z,118297.86
2017-11-15T12:39:18.224Z,118297.86
2017-11-15T12:40:20.968Z,118297.86
2017-11-15T12:41:24.289Z,118297.86
2017-11-15T12:42:27.038Z,118297.86
2017-11-15T12:43:29.774Z,118297.86
2017-11-15T12:44:33.355Z,118297.86
2017-11-15T12:45:36.108Z,118297.86
2017-11-15T12:46:38.847Z,118297.86
2017-11-15T12:47:41.873Z,118297.86
2017-11-15T12:48:44.509Z,118297.86
2017-11-15T12:49:47.139Z,118297.86
2017-11-15T12:50:50.279Z,118297.86
2017-11-15T12:51:52.995Z,118297.86
2017-11-15T12:52:55.730Z,118297.86
2017-11-15T12:53:58.741Z,118297.86
2017-11-15T12:55:01.430Z,118297.86
2017-11-15T12:56:04.190Z,118297.86
2017-11-15T12:57:07.436Z,118297.86
2017-11-15T12:58:10.064Z,118297.86
2017-11-15T12:59:12.707Z,118297.86
2017-11-15T13:00:15.413Z,118297.86
2017-11-15T13:01:18.087Z,118297.86
2017-11-15T13:02:20.761Z,118297.86
2017-11-15T13:03:23.507Z,118297.86
2017-11-15T13:04:26.243Z,118297.86
2017-11-15T13:05:29.786Z,118297.86
2017-11-15T13:06:32.531Z,118297.86
2017-11-15T13:07:35.676Z,118297.86
2017-11-15T13:08:39.747Z,118297.86
2017-11-15T13:09:42.463Z,118297.86
2017-11-15T13:10:45.192Z,118297.86
2017-11-15T13:11:47.922Z,118297.86
2017-11-15T13:12:51.285Z,118297.86
2017-11-15T13:13:54.078Z,118297.86
2017-11-15T13:14:56.853Z,118297.86
2017-11-15T13:15:59.640Z,118297.86
2017-11-15T13:17:02.511Z,118297.86
2017-11-15T13:18:05.244Z,118297.86
2017-11-15T13:19:08.313Z,118297.86
2017-11-15T13:20:11.153Z,118297.86
2017-11-15T13:21:13.914Z,118297.86
2017-11-15T13:22:16.691Z,118297.86
2017-11-15T13:23:19.409Z,118297.86
2017-11-15T13:24:22.163Z,118297.86
2017-11-15T13:25:25.304Z,118297.86
2017-11-15T13:26:28.085Z,98694.20
2017-11-15T13:27:30.796Z,98690.23
2017-11-15T13:28:33.476Z,118297.86
2017-11-15T13:29:38.725Z,118297.86
2017-11-15T13:30:41.636Z,118297.86
2017-11-15T13:31:44.909Z,118297.86
2017-11-15T13:32:47.867Z,118297.86
2017-11-15T13:33:50.557Z,118297.86
2017-11-15T13:34:53.268Z,118297.86
2017-11-15T13:35:56.028Z,118297.86
2017-11-15T13:36:59.005Z,118297.86
2017-11-15T13:38:02.255Z,118297.86
2017-11-15T13:39:05.012Z,118297.86
2017-11-15T13:40:07.674Z,118297.86
2017-11-15T13:41:10.513Z,118297.86
2017-11-15T13:42:13.209Z,118297.86
2017-11-15T13:43:15.893Z,118297.86
2017-11-15T13:44:19.079Z,118297.86
2017-11-15T13:45:21.760Z,118297.86
2017-11-15T13:46:24.520Z,118297.86
2017-11-15T13:47:27.193Z,118297.86
2017-11-15T13:48:30.020Z,118297.86
2017-11-15T13:49:32.787Z,118297.86
2017-11-15T13:50:35.882Z,118297.86
2017-11-15T13:51:38.536Z,118297.86
2017-11-15T13:52:41.228Z,118297.86
2017-11-15T13:53:43.975Z,118297.86
2017-11-15T13:54:46.741Z,118297.86
2017-11-15T13:55:49.425Z,118297.86
2017-11-15T13:56:52.466Z,118297.86
2017-11-15T13:57:55.177Z,118297.86
2017-11-15T13:58:57.935Z,118297.86
2017-11-15T14:00:00.634Z,118297.86
2017-11-15T14:01:03.336Z,118297.86
2017-11-15T14:02:06.834Z,118297.86
2017-11-15T14:03:09.814Z,118297.86
2017-11-15T14:04:12.566Z,118297.86
2017-11-15T14:05:15.287Z,118297.86
2017-11-15T14:06:17.982Z,118297.86
2017-11-15T14:07:20.661Z,118297.86
2017-11-15T14:08:23.329Z,118297.86
2017-11-15T14:09:26.277Z,118297.86
2017-11-15T14:10:29.056Z,118297.86
2017-11-15T14:11:31.776Z,118297.86
2017-11-15T14:12:34.478Z,118297.86
2017-11-15T14:13:37.105Z,118297.86
2017-11-15T14:14:39.723Z,118297.86
2017-11-15T14:15:42.781Z,118297.86
2017-11-15T14:16:45.381Z,118297.86
2017-11-15T14:17:47.985Z,118297.86
2017-11-15T14:18:50.556Z,118297.86
2017-11-15T14:19:53.240Z,118297.86
2017-11-15T14:20:56.038Z,118297.86
2017-11-15T14:21:59.000Z,118297.86
2017-11-15T14:23:01.669Z,118297.86
2017-11-15T14:24:04.388Z,118297.86
2017-11-15T14:25:07.098Z,118297.86
2017-11-15T14:26:09.788Z,118297.86
2017-11-15T14:27:12.500Z,118297.86
2017-11-15T14:28:15.647Z,118297.86
2017-11-15T14:29:18.628Z,118297.86
2017-11-15T14:30:21.284Z,118297.86
2017-11-15T14:31:23.963Z,118297.86
2017-11-15T14:32:26.494Z,118297.86
2017-11-15T14:33:29.167Z,118297.86
2017-11-15T14:34:32.157Z,118297.86
2017-11-15T14:35:34.821Z,118297.86
2017-11-15T14:36:37.610Z,118297.86
2017-11-15T14:37:40.288Z,118297.86
2017-11-15T14:38:42.937Z,118297.86
2017-11-15T14:39:47.192Z,118297.86
2017-11-15T14:40:50.284Z,118297.86
2017-11-15T14:41:53.010Z,118297.86
2017-11-15T14:42:55.676Z,118297.86
2017-11-15T14:43:58.396Z,118297.86
2017-11-15T14:45:01.136Z,118297.86
2017-11-15T14:46:03.848Z,118297.86
2017-11-15T14:47:06.896Z,118297.86
2017-11-15T14:48:09.516Z,118297.86
2017-11-15T14:49:12.250Z,118297.86
2017-11-15T14:50:14.994Z,118297.86
2017-11-15T14:51:17.725Z,118297.86
2017-11-15T14:52:20.480Z,118297.86
2017-11-15T14:53:23.575Z,118297.86
2017-11-15T22:02:44.937Z,118297.86
2017-11-15T22:03:53.043Z,118297.86
2017-11-15T22:04:55.645Z,118297.86
2017-11-15T22:05:58.859Z,118297.86
2017-11-15T22:07:03.531Z,118297.86
2017-11-15T22:08:06.700Z,118297.86
2017-11-15T22:09:11.394Z,118297.86
2017-11-15T22:10:16.438Z,118297.86
2017-11-15T22:11:19.387Z,118297.86
2017-11-15T22:12:22.104Z,118297.86
2017-11-15T22:13:26.590Z,118297.86
2017-11-15T22:14:30.290Z,118297.86
2017-11-15T22:15:34.592Z,118297.86
2017-11-15T22:16:37.667Z,118297.86
2017-11-15T22:17:40.342Z,118297.86
2017-11-15T22:18:43.045Z,118297.86
2017-11-15T22:19:46.123Z,118297.86
2017-11-15T22:20:49.089Z,118297.86
2017-11-15T22:21:51.839Z,118297.86
2017-11-15T22:22:55.245Z,118297.86
2017-11-15T22:23:58.428Z,118297.86
2017-11-15T22:25:01.191Z,118297.86
2017-11-15T22:26:03.989Z,118297.86
2017-11-15T22:27:06.686Z,118297.86
2017-11-15T22:28:09.456Z,118297.86
2017-11-15T22:29:13.479Z,118297.86
2017-11-15T22:30:17.093Z,118297.86
2017-11-15T22:31:21.432Z,118297.86
2017-11-15T22:32:24.406Z,118297.86
2017-11-15T22:33:27.161Z,118297.86
2017-11-15T22:34:29.852Z,118297.86
2017-11-15T22:35:34.459Z,118297.86
2017-11-15T22:36:37.216Z,118297.86
2017-11-15T22:37:39.822Z,118297.86
2017-11-15T22:38:42.779Z,118297.86
2017-11-15T22:39:45.490Z,118297.86
2017-11-15T22:40:48.262Z,118297.86
2017-11-15T22:41:51.241Z,118297.86
2017-11-15T22:42:53.951Z,118297.86
2017-11-15T22:43:56.664Z,118297.86
2017-11-15T22:44:59.359Z,118297.86
2017-11-15T22:46:02.152Z,118297.86
2017-11-15T22:47:04.872Z,118297.86
2017-11-15T22:48:07.856Z,118297.86
2017-11-15T22:49:11.193Z,118297.86
2017-11-15T22:50:13.936Z,118297.86
2017-11-15T22:51:16.641Z,118297.86
2017-11-15T22:52:19.765Z,118297.86
